createdAt,value
2022-11-06T00:02:03.350Z,13.30
2022-11-06T00:04:30.735Z,11.23
2022-11-06T00:06:57.764Z,13.30
2022-11-06T00:09:24.801Z,12.03
2022-11-06T00:11:53.130Z,12.67
2022-11-06T00:14:20.174Z,11.70
2022-11-06T00:16:47.622Z,12.77
2022-11-06T00:19:15.546Z,11.90
2022-11-06T00:21:42.785Z,9.17
2022-11-06T00:24:12.168Z,9.47
2022-11-06T00:26:39.173Z,8.53
2022-11-06T00:29:06.892Z,7.47
2022-11-06T00:31:37.433Z,7.40
2022-11-06T00:34:07.632Z,9.73
2022-11-06T00:36:34.754Z,9.37
2022-11-06T00:39:02.400Z,9.03
2022-11-06T00:41:31.377Z,9.27
2022-11-06T00:44:01.345Z,7.93
2022-11-06T00:46:28.513Z,9.00
2022-11-06T00:48:56.226Z,9.90
2022-11-06T00:51:27.470Z,9.37
2022-11-06T00:53:56.269Z,8.83
2022-11-06T00:56:23.683Z,9.07
2022-11-06T00:58:51.138Z,9.77
2022-11-06T01:01:22.052Z,8.77
2022-11-06T01:03:55.709Z,8.27
2022-11-06T01:06:26.308Z,8.47
2022-11-06T01:08:54.053Z,7.57
2022-11-06T01:11:23.942Z,7.90
2022-11-06T01:13:53.075Z,9.30
2022-11-06T01:16:20.604Z,8.93
2022-11-06T01:18:48.265Z,8.27
2022-11-06T01:21:18.350Z,9.70
2022-11-06T01:23:45.715Z,8.00
2022-11-06T01:26:14.308Z,8.20
2022-11-06T01:28:41.669Z,8.87
2022-11-06T01:31:11.622Z,8.27
2022-11-06T01:33:39.007Z,8.17
2022-11-06T01:36:08.429Z,7.33
2022-11-06T01:38:35.457Z,7.07
2022-11-06T01:41:02.481Z,6.77
2022-11-06T01:43:54.316Z,8.10
2022-11-06T01:46:23.380Z,7.13
2022-11-06T01:49:06.513Z,6.43
2022-11-06T01:51:39.009Z,6.50
2022-11-06T01:54:07.744Z,6.37
2022-11-06T01:56:36.704Z,6.97
2022-11-06T01:59:05.763Z,7.67
2022-11-06T02:01:33.006Z,6.90
2022-11-06T02:04:15.828Z,7.07
2022-11-06T02:06:44.401Z,7.13
2022-11-06T02:09:12.325Z,7.37
2022-11-06T02:11:42.617Z,7.03
2022-11-06T02:14:49.315Z,6.57
2022-11-06T02:20:13.063Z,6.50
2022-11-06T02:23:19.722Z,7.90
2022-11-06T02:28:47.102Z,10.20
2022-11-06T02:31:19.146Z,9.17
2022-11-06T02:33:52.170Z,9.97
2022-11-06T02:36:28.548Z,10.90
2022-11-06T02:39:01.857Z,9.20
2022-11-06T02:41:34.105Z,9.00
2022-11-06T02:44:06.238Z,7.17
2022-11-06T02:46:46.834Z,7.93
2022-11-06T02:49:19.581Z,7.63
2022-11-06T02:51:51.388Z,7.83
2022-11-06T02:54:21.386Z,8.10
2022-11-06T02:56:51.595Z,8.10
2022-11-06T02:59:50.338Z,8.80
2022-11-06T03:02:24.814Z,9.37
2022-11-06T03:05:04.433Z,8.90
2022-11-06T03:07:57.440Z,9.00
2022-11-06T03:10:30.681Z,8.57
2022-11-06T03:13:07.721Z,8.60
2022-11-06T03:16:01.272Z,8.30
2022-11-06T03:18:39.150Z,8.73
2022-11-06T03:21:18.986Z,8.87
2022-11-06T03:23:56.392Z,8.10
2022-11-06T03:26:33.010Z,8.80
2022-11-06T03:29:10.451Z,7.60
2022-11-06T03:31:46.299Z,8.43
2022-11-06T03:34:19.080Z,8.23
2022-11-06T03:36:52.945Z,7.97
2022-11-06T03:39:27.749Z,7.40
2022-11-06T03:42:07.375Z,6.22
2022-11-06T03:44:38.785Z,7.23
2022-11-06T03:47:22.321Z,7.57
2022-11-06T03:50:01.393Z,7.87
2022-11-06T03:52:36.058Z,8.00
2022-11-06T03:55:26.187Z,8.15
2022-11-06T03:58:02.086Z,8.10
2022-11-06T04:00:29.796Z,6.97
2022-11-06T04:03:05.074Z,7.53
2022-11-06T04:05:39.789Z,7.83
2022-11-06T04:08:29.512Z,7.72
2022-11-06T04:11:21.922Z,8.53
2022-11-06T04:13:58.668Z,8.40
2022-11-06T04:16:27.491Z,7.30
2022-11-06T04:18:54.429Z,8.50
2022-11-06T04:22:01.117Z,7.60
2022-11-06T04:28:17.193Z,7.03
2022-11-06T04:31:10.057Z,6.50
2022-11-06T04:34:02.048Z,6.50
2022-11-06T04:36:51.197Z,6.53
2022-11-06T04:39:57.936Z,6.67
2022-11-06T04:42:40.759Z,7.47
2022-11-06T04:45:15.841Z,6.37
2022-11-06T04:47:44.120Z,7.35
2022-11-06T04:50:13.683Z,6.53
2022-11-06T04:52:41.979Z,7.67
2022-11-06T04:55:09.293Z,8.70
2022-11-06T04:57:36.281Z,8.03
2022-11-06T05:00:04.880Z,8.40
2022-11-06T05:02:31.945Z,8.77
2022-11-06T05:04:59.004Z,8.07
2022-11-06T05:07:25.971Z,7.17
2022-11-06T05:09:53.064Z,8.13
2022-11-06T05:12:20.125Z,7.50
2022-11-06T05:14:47.085Z,6.87
2022-11-06T05:17:14.212Z,6.80
2022-11-06T05:19:41.218Z,8.70
2022-11-06T05:22:29.655Z,8.47
2022-11-06T05:24:56.587Z,8.10
2022-11-06T05:27:23.538Z,10.43
2022-11-06T05:29:50.541Z,10.57
2022-11-06T05:32:17.538Z,10.60
2022-11-06T05:34:46.008Z,10.93
2022-11-06T05:37:12.944Z,12.40
2022-11-06T05:39:41.997Z,12.20
2022-11-06T05:42:09.248Z,12.97
2022-11-06T05:44:37.734Z,13.30
2022-11-06T05:47:04.713Z,12.57
2022-11-06T05:49:31.654Z,14.57
2022-11-06T05:51:58.638Z,14.23
2022-11-06T05:54:25.623Z,15.77
2022-11-06T05:56:55.129Z,16.97
2022-11-06T05:59:22.390Z,19.20
2022-11-06T06:01:49.457Z,24.27
2022-11-06T06:04:16.540Z,25.33
2022-11-06T06:06:43.810Z,27.67
2022-11-06T06:09:10.814Z,24.67
2022-11-06T06:11:37.795Z,30.27
2022-11-06T06:14:04.711Z,30.43
2022-11-06T06:16:31.727Z,24.77
2022-11-06T06:18:58.763Z,29.40
2022-11-06T06:21:25.776Z,22.33
2022-11-06T06:23:53.084Z,26.50
2022-11-06T06:26:20.856Z,35.33
2022-11-06T06:28:51.374Z,27.10
2022-11-06T06:31:18.297Z,28.50
2022-11-06T06:33:45.322Z,28.27
2022-11-06T06:36:12.399Z,26.63
2022-11-06T06:38:39.401Z,27.37
2022-11-06T06:41:08.216Z,26.03
2022-11-06T06:43:35.752Z,24.83
2022-11-06T06:46:05.520Z,24.73
2022-11-06T06:48:33.271Z,24.40
2022-11-06T06:51:00.873Z,24.63
2022-11-06T06:53:28.416Z,23.23
2022-11-06T06:55:57.897Z,21.83
2022-11-06T06:58:25.275Z,21.50
2022-11-06T07:00:52.618Z,22.40
2022-11-06T07:03:19.691Z,22.37
2022-11-06T07:05:47.363Z,20.33
2022-11-06T07:08:14.712Z,21.90
2022-11-06T07:10:42.045Z,20.07
2022-11-06T07:13:09.067Z,21.20
2022-11-06T07:15:36.067Z,22.13
2022-11-06T07:18:07.579Z,24.60
2022-11-06T07:20:35.044Z,22.83
2022-11-06T07:23:09.445Z,22.43
2022-11-06T07:25:37.284Z,18.30
2022-11-06T07:28:05.698Z,21.63
2022-11-06T07:30:33.819Z,20.37
2022-11-06T07:33:02.586Z,22.73
2022-11-06T07:35:30.172Z,21.17
2022-11-06T07:37:57.415Z,22.20
2022-11-06T07:40:24.555Z,20.43
2022-11-06T07:42:51.542Z,21.10
2022-11-06T07:45:18.520Z,20.23
2022-11-06T07:47:46.386Z,18.83
2022-11-06T07:50:13.354Z,19.03
2022-11-06T07:52:40.310Z,19.87
2022-11-06T07:55:07.906Z,19.57
2022-11-06T07:57:37.378Z,19.13
2022-11-06T08:00:06.025Z,18.80
2022-11-06T08:02:33.070Z,18.07
2022-11-06T08:05:00.088Z,17.60
2022-11-06T08:07:27.033Z,19.00
2022-11-06T08:09:54.069Z,18.17
2022-11-06T08:12:21.201Z,17.77
2022-11-06T08:14:48.194Z,17.70
2022-11-06T08:17:17.753Z,17.50
2022-11-06T08:19:45.243Z,17.07
2022-11-06T08:22:12.259Z,16.27
2022-11-06T08:24:39.338Z,17.67
2022-11-06T08:27:06.335Z,16.63
2022-11-06T08:29:37.008Z,16.73
2022-11-06T08:32:07.037Z,16.40
2022-11-06T08:34:35.869Z,15.10
2022-11-06T08:37:03.076Z,15.03
2022-11-06T08:39:30.645Z,15.33
2022-11-06T08:41:57.729Z,14.80
2022-11-06T08:44:24.979Z,12.67
2022-11-06T08:46:52.451Z,14.10
2022-11-06T08:49:19.780Z,14.03
2022-11-06T08:51:46.777Z,13.77
2022-11-06T08:54:14.011Z,15.37
2022-11-06T08:56:40.989Z,14.10
2022-11-06T08:59:08.037Z,14.70
2022-11-06T09:01:35.220Z,12.93
2022-11-06T09:04:02.366Z,13.60
2022-11-06T09:06:29.373Z,12.83
2022-11-06T09:08:56.984Z,12.30
2022-11-06T09:11:24.239Z,12.77
2022-11-06T09:13:51.172Z,11.60
2022-11-06T09:16:18.198Z,11.73
2022-11-06T09:18:46.476Z,10.97
2022-11-06T09:21:16.097Z,10.07
2022-11-06T09:23:44.084Z,10.13
2022-11-06T09:26:11.077Z,9.00
2022-11-06T09:28:38.102Z,9.27
2022-11-06T09:31:05.328Z,8.30
2022-11-06T09:33:32.452Z,7.50
2022-11-06T09:35:59.703Z,5.80
2022-11-06T09:38:26.645Z,7.23
2022-11-06T09:40:57.956Z,6.47
2022-11-06T09:44:12.426Z,5.93
2022-11-06T09:46:44.222Z,5.90
2022-11-06T09:49:34.887Z,5.63
2022-11-06T09:52:44.279Z,4.40
2022-11-06T09:55:20.757Z,5.20
2022-11-06T09:58:09.972Z,5.03
2022-11-06T10:00:38.531Z,5.70
2022-11-06T10:03:18.020Z,5.70
2022-11-06T10:05:47.015Z,5.37
2022-11-06T10:08:28.194Z,5.27
2022-11-06T10:11:34.893Z,5.50
2022-11-06T10:25:32.517Z,5.27
2022-11-06T10:30:42.483Z,4.17
2022-11-06T10:33:24.339Z,4.67
2022-11-06T10:36:16.424Z,4.93
2022-11-06T10:38:47.846Z,5.37
2022-11-06T10:41:24.708Z,5.50
2022-11-06T10:44:05.315Z,5.33
2022-11-06T10:46:55.745Z,4.67
2022-11-06T10:49:37.018Z,5.20
2022-11-06T10:52:44.973Z,5.40
2022-11-06T10:55:51.932Z,5.17
2022-11-06T10:58:21.460Z,5.00
2022-11-06T11:00:50.434Z,5.30
2022-11-06T11:03:30.135Z,5.20
2022-11-06T11:05:57.213Z,5.57
2022-11-06T11:08:47.976Z,4.67
2022-11-06T11:11:34.886Z,4.70
2022-11-06T11:14:34.616Z,5.53
2022-11-06T11:17:08.745Z,4.23
2022-11-06T11:19:38.302Z,5.23
2022-11-06T11:22:19.947Z,4.67
2022-11-06T12:34:06.626Z,4.47
2022-11-06T12:36:51.465Z,5.37
2022-11-06T12:39:24.947Z,4.80
2022-11-06T12:41:56.647Z,4.80
2022-11-06T12:44:23.784Z,4.83
2022-11-06T12:47:17.250Z,4.07
2022-11-06T12:50:23.945Z,4.53
2022-11-06T12:53:33.660Z,11.73
2022-11-06T12:56:31.305Z,6.00
2022-11-06T12:59:32.521Z,5.03
2022-11-06T13:02:39.334Z,4.87
2022-11-06T13:05:47.111Z,4.50
2022-11-06T13:08:53.895Z,4.97
2022-11-06T13:11:45.678Z,4.77
2022-11-06T13:14:39.958Z,18.97
2022-11-06T13:17:32.300Z,5.37
